sensor_id;sensor_type;location;lat;lon;timestamp;temperature;humidity
26641;DHT22;14269;47.358;0.724;2023-07-20T00:00:28;22.0;54.0
26641;DHT22;14269;47.358;0.724;2023-07-20T00:03:16;22.0;53.0
26641;DHT22;14269;47.358;0.724;2023-07-20T00:05:52;22.0;54.0
26641;DHT22;14269;47.358;0.724;2023-07-20T00:08:24;22.0;54.0
26641;DHT22;14269;47.358;0.724;2023-07-20T00:10:55;22.0;53.0
26641;DHT22;14269;47.358;0.724;2023-07-20T00:13:27;22.0;52.0
26641;DHT22;14269;47.358;0.724;2023-07-20T00:15:58;22.0;53.0
26641;DHT22;14269;47.358;0.724;2023-07-20T00:18:30;22.0;55.0
26641;DHT22;14269;47.358;0.724;2023-07-20T00:21:02;22.0;54.0
26641;DHT22;14269;47.358;0.724;2023-07-20T00:23:33;22.0;53.0
26641;DHT22;14269;47.358;0.724;2023-07-20T00:26:05;22.0;53.0
26641;DHT22;14269;47.358;0.724;2023-07-20T00:28:36;22.0;53.0
26641;DHT22;14269;47.358;0.724;2023-07-20T00:31:08;22.0;52.0
26641;DHT22;14269;47.358;0.724;2023-07-20T00:33:40;22.0;53.0
26641;DHT22;14269;47.358;0.724;2023-07-20T00:36:11;22.0;53.0
26641;DHT22;14269;47.358;0.724;2023-07-20T00:38:43;22.0;53.0
26641;DHT22;14269;47.358;0.724;2023-07-20T00:41:15;22.0;53.0
26641;DHT22;14269;47.358;0.724;2023-07-20T00:43:46;22.0;52.0
26641;DHT22;14269;47.358;0.724;2023-07-20T00:46:18;22.0;53.0
26641;DHT22;14269;47.358;0.724;2023-07-20T00:48:50;22.0;52.0
26641;DHT22;14269;47.358;0.724;2023-07-20T00:51:23;22.0;53.0
26641;DHT22;14269;47.358;0.724;2023-07-20T00:54:04;22.0;53.0
26641;DHT22;14269;47.358;0.724;2023-07-20T00:56:45;22.0;53.0
26641;DHT22;14269;47.358;0.724;2023-07-20T00:59:16;22.0;53.0
26641;DHT22;14269;47.358;0.724;2023-07-20T01:01:48;22.0;53.0
26641;DHT22;14269;47.358;0.724;2023-07-20T01:04:20;22.0;53.0
26641;DHT22;14269;47.358;0.724;2023-07-20T01:06:58;22.0;53.0
26641;DHT22;14269;47.358;0.724;2023-07-20T01:09:38;22.0;53.0
26641;DHT22;14269;47.358;0.724;2023-07-20T01:12:22;22.0;54.0
26641;DHT22;14269;47.358;0.724;2023-07-20T01:14:57;21.0;55.0
26641;DHT22;14269;47.358;0.724;2023-07-20T01:17:28;21.0;55.0
26641;DHT22;14269;47.358;0.724;2023-07-20T01:20:00;21.0;54.0
26641;DHT22;14269;47.358;0.724;2023-07-20T01:22:52;21.0;55.0
26641;DHT22;14269;47.358;0.724;2023-07-20T01:25:47;22.0;54.0
26641;DHT22;14269;47.358;0.724;2023-07-20T01:28:37;22.0;54.0
26641;DHT22;14269;47.358;0.724;2023-07-20T01:31:23;22.0;54.0
26641;DHT22;14269;47.358;0.724;2023-07-20T01:34:01;22.0;54.0
26641;DHT22;14269;47.358;0.724;2023-07-20T01:36:42;22.0;54.0
26641;DHT22;14269;47.358;0.724;2023-07-20T01:39:23;22.0;54.0
26641;DHT22;14269;47.358;0.724;2023-07-20T01:41:54;22.0;54.0
26641;DHT22;14269;47.358;0.724;2023-07-20T01:44:27;22.0;54.0
26641;DHT22;14269;47.358;0.724;2023-07-20T01:47:08;22.0;54.0
26641;DHT22;14269;47.358;0.724;2023-07-20T01:49:39;22.0;54.0
26641;DHT22;14269;47.358;0.724;2023-07-20T01:52:11;22.0;55.0
26641;DHT22;14269;47.358;0.724;2023-07-20T01:54:43;22.0;54.0
26641;DHT22;14269;47.358;0.724;2023-07-20T01:57:14;22.0;55.0
26641;DHT22;14269;47.358;0.724;2023-07-20T01:59:46;22.0;55.0
26641;DHT22;14269;47.358;0.724;2023-07-20T02:02:18;22.0;55.0
26641;DHT22;14269;47.358;0.724;2023-07-20T02:04:49;22.0;55.0
26641;DHT22;14269;47.358;0.724;2023-07-20T02:07:21;22.0;55.0
26641;DHT22;14269;47.358;0.724;2023-07-20T02:09:53;22.0;55.0
26641;DHT22;14269;47.358;0.724;2023-07-20T02:12:24;22.0;55.0
26641;DHT22;14269;47.358;0.724;2023-07-20T02:14:56;22.0;55.0
26641;DHT22;14269;47.358;0.724;2023-07-20T02:17:27;22.0;55.0
26641;DHT22;14269;47.358;0.724;2023-07-20T02:19:59;21.0;55.0
26641;DHT22;14269;47.358;0.724;2023-07-20T02:22:31;22.0;55.0
26641;DHT22;14269;47.358;0.724;2023-07-20T02:25:03;21.0;55.0
26641;DHT22;14269;47.358;0.724;2023-07-20T02:27:34;21.0;55.0
26641;DHT22;14269;47.358;0.724;2023-07-20T02:30:07;21.0;55.0
26641;DHT22;14269;47.358;0.724;2023-07-20T02:32:48;21.0;55.0
26641;DHT22;14269;47.358;0.724;2023-07-20T02:35:19;21.0;56.0
26641;DHT22;14269;47.358;0.724;2023-07-20T02:37:51;21.0;56.0
26641;DHT22;14269;47.358;0.724;2023-07-20T02:40:23;21.0;56.0
26641;DHT22;14269;47.358;0.724;2023-07-20T02:42:54;21.0;56.0
26641;DHT22;14269;47.358;0.724;2023-07-20T02:45:26;21.0;56.0
26641;DHT22;14269;47.358;0.724;2023-07-20T02:47:57;21.0;56.0
26641;DHT22;14269;47.358;0.724;2023-07-20T02:50:29;21.0;56.0
26641;DHT22;14269;47.358;0.724;2023-07-20T02:53:01;21.0;56.0
26641;DHT22;14269;47.358;0.724;2023-07-20T02:55:32;21.0;56.0
26641;DHT22;14269;47.358;0.724;2023-07-20T02:58:04;21.0;56.0
26641;DHT22;14269;47.358;0.724;2023-07-20T03:00:36;21.0;56.0
26641;DHT22;14269;47.358;0.724;2023-07-20T03:03:10;21.0;56.0
26641;DHT22;14269;47.358;0.724;2023-07-20T03:05:54;21.0;55.0
26641;DHT22;14269;47.358;0.724;2023-07-20T03:08:31;21.0;57.0
26641;DHT22;14269;47.358;0.724;2023-07-20T03:11:03;21.0;56.0
26641;DHT22;14269;47.358;0.724;2023-07-20T03:13:34;21.0;56.0
26641;DHT22;14269;47.358;0.724;2023-07-20T03:16:11;21.0;56.0
26641;DHT22;14269;47.358;0.724;2023-07-20T03:18:47;21.0;56.0
26641;DHT22;14269;47.358;0.724;2023-07-20T03:21:19;21.0;56.0
26641;DHT22;14269;47.358;0.724;2023-07-20T03:23:51;21.0;56.0
26641;DHT22;14269;47.358;0.724;2023-07-20T03:26:22;21.0;56.0
26641;DHT22;14269;47.358;0.724;2023-07-20T03:28:54;21.0;56.0
26641;DHT22;14269;47.358;0.724;2023-07-20T03:31:26;21.0;56.0
26641;DHT22;14269;47.358;0.724;2023-07-20T03:33:57;21.0;55.0
26641;DHT22;14269;47.358;0.724;2023-07-20T03:36:29;21.0;56.0
26641;DHT22;14269;47.358;0.724;2023-07-20T03:39:00;21.0;56.0
26641;DHT22;14269;47.358;0.724;2023-07-20T03:41:32;21.0;56.0
26641;DHT22;14269;47.358;0.724;2023-07-20T03:44:04;21.0;56.0
26641;DHT22;14269;47.358;0.724;2023-07-20T03:46:35;21.0;56.0
26641;DHT22;14269;47.358;0.724;2023-07-20T03:49:09;21.0;56.0
26641;DHT22;14269;47.358;0.724;2023-07-20T03:51:49;21.0;56.0
26641;DHT22;14269;47.358;0.724;2023-07-20T03:54:20;21.0;56.0
26641;DHT22;14269;47.358;0.724;2023-07-20T03:56:52;21.0;56.0
26641;DHT22;14269;47.358;0.724;2023-07-20T03:59:24;21.0;56.0
26641;DHT22;14269;47.358;0.724;2023-07-20T04:01:55;21.0;56.0
26641;DHT22;14269;47.358;0.724;2023-07-20T04:04:28;21.0;56.0
26641;DHT22;14269;47.358;0.724;2023-07-20T04:06:59;21.0;56.0
26641;DHT22;14269;47.358;0.724;2023-07-20T04:09:31;21.0;56.0
26641;DHT22;14269;47.358;0.724;2023-07-20T04:12:12;21.0;56.0
26641;DHT22;14269;47.358;0.724;2023-07-20T04:14:44;21.0;56.0
26641;DHT22;14269;47.358;0.724;2023-07-20T04:17:15;21.0;56.0
26641;DHT22;14269;47.358;0.724;2023-07-20T04:19:47;21.0;56.0
26641;DHT22;14269;47.358;0.724;2023-07-20T04:22:19;21.0;56.0
26641;DHT22;14269;47.358;0.724;2023-07-20T04:24:50;21.0;56.0
26641;DHT22;14269;47.358;0.724;2023-07-20T04:27:22;21.0;56.0
26641;DHT22;14269;47.358;0.724;2023-07-20T04:29:54;21.0;56.0
26641;DHT22;14269;47.358;0.724;2023-07-20T04:32:25;21.0;56.0
26641;DHT22;14269;47.358;0.724;2023-07-20T04:34:57;21.0;57.0
26641;DHT22;14269;47.358;0.724;2023-07-20T04:37:29;21.0;57.0
26641;DHT22;14269;47.358;0.724;2023-07-20T04:40:00;21.0;57.0
26641;DHT22;14269;47.358;0.724;2023-07-20T04:42:32;21.0;57.0
26641;DHT22;14269;47.358;0.724;2023-07-20T04:45:04;21.0;57.0
26641;DHT22;14269;47.358;0.724;2023-07-20T04:47:35;21.0;57.0
26641;DHT22;14269;47.358;0.724;2023-07-20T04:50:07;21.0;57.0
26641;DHT22;14269;47.358;0.724;2023-07-20T04:52:38;21.0;58.0
26641;DHT22;14269;47.358;0.724;2023-07-20T04:55:10;21.0;58.0
26641;DHT22;14269;47.358;0.724;2023-07-20T04:57:42;21.0;58.0
26641;DHT22;14269;47.358;0.724;2023-07-20T05:00:15;21.0;58.0
26641;DHT22;14269;47.358;0.724;2023-07-20T05:02:56;21.0;58.0
26641;DHT22;14269;47.358;0.724;2023-07-20T05:05:27;21.0;58.0
26641;DHT22;14269;47.358;0.724;2023-07-20T05:07:59;21.0;58.0
26641;DHT22;14269;47.358;0.724;2023-07-20T05:10:30;21.0;58.0
26641;DHT22;14269;47.358;0.724;2023-07-20T05:13:02;21.0;58.0
26641;DHT22;14269;47.358;0.724;2023-07-20T05:15:34;21.0;58.0
26641;DHT22;14269;47.358;0.724;2023-07-20T05:18:05;21.0;58.0
26641;DHT22;14269;47.358;0.724;2023-07-20T05:20:37;21.0;58.0
26641;DHT22;14269;47.358;0.724;2023-07-20T05:23:09;21.0;58.0
26641;DHT22;14269;47.358;0.724;2023-07-20T05:25:40;21.0;58.0
26641;DHT22;14269;47.358;0.724;2023-07-20T05:28:12;21.0;58.0
26641;DHT22;14269;47.358;0.724;2023-07-20T05:30:43;21.0;58.0
26641;DHT22;14269;47.358;0.724;2023-07-20T05:33:15;21.0;58.0
26641;DHT22;14269;47.358;0.724;2023-07-20T05:35:47;21.0;58.0
26641;DHT22;14269;47.358;0.724;2023-07-20T05:38:19;21.0;58.0
26641;DHT22;14269;47.358;0.724;2023-07-20T05:41:01;21.0;58.0
26641;DHT22;14269;47.358;0.724;2023-07-20T05:43:42;21.0;57.0
26641;DHT22;14269;47.358;0.724;2023-07-20T05:46:13;21.0;57.0
26641;DHT22;14269;47.358;0.724;2023-07-20T05:48:45;21.0;57.0
26641;DHT22;14269;47.358;0.724;2023-07-20T05:51:17;21.0;57.0
26641;DHT22;14269;47.358;0.724;2023-07-20T05:53:48;21.0;57.0
26641;DHT22;14269;47.358;0.724;2023-07-20T05:56:20;21.0;57.0
26641;DHT22;14269;47.358;0.724;2023-07-20T05:58:52;21.0;57.0
26641;DHT22;14269;47.358;0.724;2023-07-20T06:01:26;20.0;57.0
26641;DHT22;14269;47.358;0.724;2023-07-20T06:04:05;21.0;56.0
26641;DHT22;14269;47.358;0.724;2023-07-20T06:06:37;21.0;56.0
26641;DHT22;14269;47.358;0.724;2023-07-20T06:09:11;20.0;57.0
26641;DHT22;14269;47.358;0.724;2023-07-20T06:11:50;21.0;57.0
26641;DHT22;14269;47.358;0.724;2023-07-20T06:14:22;21.0;56.0
26641;DHT22;14269;47.358;0.724;2023-07-20T06:16:53;21.0;55.0
26641;DHT22;14269;47.358;0.724;2023-07-20T06:19:25;21.0;55.0
26641;DHT22;14269;47.358;0.724;2023-07-20T06:21:57;21.0;55.0
26641;DHT22;14269;47.358;0.724;2023-07-20T06:24:28;21.0;55.0
26641;DHT22;14269;47.358;0.724;2023-07-20T06:27:00;21.0;55.0
26641;DHT22;14269;47.358;0.724;2023-07-20T06:29:32;21.0;55.0
26641;DHT22;14269;47.358;0.724;2023-07-20T06:32:04;21.0;54.0
26641;DHT22;14269;47.358;0.724;2023-07-20T06:34:45;21.0;54.0
26641;DHT22;14269;47.358;0.724;2023-07-20T06:37:27;21.0;54.0
26641;DHT22;14269;47.358;0.724;2023-07-20T06:39:58;21.0;53.0
26641;DHT22;14269;47.358;0.724;2023-07-20T06:42:31;21.0;53.0
26641;DHT22;14269;47.358;0.724;2023-07-20T06:45:02;21.0;53.0
26641;DHT22;14269;47.358;0.724;2023-07-20T06:47:33;22.0;53.0
26641;DHT22;14269;47.358;0.724;2023-07-20T06:50:06;22.0;53.0
26641;DHT22;14269;47.358;0.724;2023-07-20T06:52:48;22.0;53.0
26641;DHT22;14269;47.358;0.724;2023-07-20T06:55:18;22.0;52.0
26641;DHT22;14269;47.358;0.724;2023-07-20T06:57:50;22.0;52.0
26641;DHT22;14269;47.358;0.724;2023-07-20T07:00:22;22.0;52.0
26641;DHT22;14269;47.358;0.724;2023-07-20T07:02:53;22.0;51.0
26641;DHT22;14269;47.358;0.724;2023-07-20T07:05:25;23.0;51.0
26641;DHT22;14269;47.358;0.724;2023-07-20T07:07:57;23.0;50.0
26641;DHT22;14269;47.358;0.724;2023-07-20T07:10:29;23.0;50.0
26641;DHT22;14269;47.358;0.724;2023-07-20T07:13:00;23.0;50.0
26641;DHT22;14269;47.358;0.724;2023-07-20T07:15:32;23.0;50.0
26641;DHT22;14269;47.358;0.724;2023-07-20T07:18:03;23.0;49.0
26641;DHT22;14269;47.358;0.724;2023-07-20T07:20:35;23.0;49.0
26641;DHT22;14269;47.358;0.724;2023-07-20T07:23:06;24.0;49.0
26641;DHT22;14269;47.358;0.724;2023-07-20T07:25:38;23.0;48.0
26641;DHT22;14269;47.358;0.724;2023-07-20T07:28:10;24.0;48.0
26641;DHT22;14269;47.358;0.724;2023-07-20T07:30:42;24.0;48.0
26641;DHT22;14269;47.358;0.724;2023-07-20T07:33:13;24.0;48.0
26641;DHT22;14269;47.358;0.724;2023-07-20T07:35:45;24.0;47.0
26641;DHT22;14269;47.358;0.724;2023-07-20T07:38:16;24.0;47.0
26641;DHT22;14269;47.358;0.724;2023-07-20T07:40:48;24.0;46.0
26641;DHT22;14269;47.358;0.724;2023-07-20T07:43:20;25.0;46.0
26641;DHT22;14269;47.358;0.724;2023-07-20T07:45:54;25.0;46.0
26641;DHT22;14269;47.358;0.724;2023-07-20T07:48:33;24.0;45.0
26641;DHT22;14269;47.358;0.724;2023-07-20T07:51:05;24.0;45.0
26641;DHT22;14269;47.358;0.724;2023-07-20T07:53:37;25.0;45.0
26641;DHT22;14269;47.358;0.724;2023-07-20T07:56:22;25.0;45.0
26641;DHT22;14269;47.358;0.724;2023-07-20T07:59:00;25.0;44.0
26641;DHT22;14269;47.358;0.724;2023-07-20T08:01:32;25.0;44.0
26641;DHT22;14269;47.358;0.724;2023-07-20T08:04:03;25.0;44.0
26641;DHT22;14269;47.358;0.724;2023-07-20T08:06:35;25.0;44.0
26641;DHT22;14269;47.358;0.724;2023-07-20T08:09:06;25.0;44.0
26641;DHT22;14269;47.358;0.724;2023-07-20T08:11:39;25.0;43.0
26641;DHT22;14269;47.358;0.724;2023-07-20T08:14:20;26.0;43.0
26641;DHT22;14269;47.358;0.724;2023-07-20T08:16:53;26.0;43.0
26641;DHT22;14269;47.358;0.724;2023-07-20T08:19:33;26.0;43.0
26641;DHT22;14269;47.358;0.724;2023-07-20T08:22:15;26.0;43.0
26641;DHT22;14269;47.358;0.724;2023-07-20T08:24:47;26.0;44.0
26641;DHT22;14269;47.358;0.724;2023-07-20T08:27:18;26.0;43.0
26641;DHT22;14269;47.358;0.724;2023-07-20T08:29:50;27.0;42.0
26641;DHT22;14269;47.358;0.724;2023-07-20T08:32:22;27.0;42.0
26641;DHT22;14269;47.358;0.724;2023-07-20T08:34:53;26.0;41.0
26641;DHT22;14269;47.358;0.724;2023-07-20T08:37:25;27.0;42.0
26641;DHT22;14269;47.358;0.724;2023-07-20T08:39:57;27.0;41.0
26641;DHT22;14269;47.358;0.724;2023-07-20T08:42:29;27.0;40.0
26641;DHT22;14269;47.358;0.724;2023-07-20T08:45:13;27.0;41.0
26641;DHT22;14269;47.358;0.724;2023-07-20T08:47:52;27.0;40.0
26641;DHT22;14269;47.358;0.724;2023-07-20T08:50:34;27.0;39.0
26641;DHT22;14269;47.358;0.724;2023-07-20T08:53:06;27.0;38.0
26641;DHT22;14269;47.358;0.724;2023-07-20T08:55:50;27.0;39.0
26641;DHT22;14269;47.358;0.724;2023-07-20T08:58:29;27.0;39.0
26641;DHT22;14269;47.358;0.724;2023-07-20T09:01:01;27.0;38.0
26641;DHT22;14269;47.358;0.724;2023-07-20T09:03:43;28.0;38.0
26641;DHT22;14269;47.358;0.724;2023-07-20T09:06:24;28.0;38.0
26641;DHT22;14269;47.358;0.724;2023-07-20T09:08:56;28.0;37.0
26641;DHT22;14269;47.358;0.724;2023-07-20T09:11:27;28.0;37.0
26641;DHT22;14269;47.358;0.724;2023-07-20T09:14:03;28.0;38.0
26641;DHT22;14269;47.358;0.724;2023-07-20T09:16:49;28.0;37.0
26641;DHT22;14269;47.358;0.724;2023-07-20T09:19:22;27.0;38.0
26641;DHT22;14269;47.358;0.724;2023-07-20T09:21:54;28.0;37.0
26641;DHT22;14269;47.358;0.724;2023-07-20T09:24:28;28.0;37.0
26641;DHT22;14269;47.358;0.724;2023-07-20T09:27:08;28.0;36.0
26641;DHT22;14269;47.358;0.724;2023-07-20T09:29:49;28.0;37.0
26641;DHT22;14269;47.358;0.724;2023-07-20T09:32:21;29.0;37.0
26641;DHT22;14269;47.358;0.724;2023-07-20T09:34:52;29.0;35.0
26641;DHT22;14269;47.358;0.724;2023-07-20T09:37:24;28.0;36.0
26641;DHT22;14269;47.358;0.724;2023-07-20T09:39:56;28.0;36.0
26641;DHT22;14269;47.358;0.724;2023-07-20T09:42:27;27.0;37.0
26641;DHT22;14269;47.358;0.724;2023-07-20T09:44:59;27.0;37.0
26641;DHT22;14269;47.358;0.724;2023-07-20T09:47:31;28.0;37.0
26641;DHT22;14269;47.358;0.724;2023-07-20T09:50:12;27.0;37.0
26641;DHT22;14269;47.358;0.724;2023-07-20T09:52:44;28.0;37.0
26641;DHT22;14269;47.358;0.724;2023-07-20T09:55:16;28.0;36.0
26641;DHT22;14269;47.358;0.724;2023-07-20T09:57:47;28.0;36.0
26641;DHT22;14269;47.358;0.724;2023-07-20T10:00:20;28.0;37.0
26641;DHT22;14269;47.358;0.724;2023-07-20T10:03:03;28.0;37.0
26641;DHT22;14269;47.358;0.724;2023-07-20T10:05:46;28.0;36.0
26641;DHT22;14269;47.358;0.724;2023-07-20T10:08:26;28.0;36.0
26641;DHT22;14269;47.358;0.724;2023-07-20T10:11:07;29.0;35.0
26641;DHT22;14269;47.358;0.724;2023-07-20T10:13:51;30.0;34.0
26641;DHT22;14269;47.358;0.724;2023-07-20T10:16:34;30.0;34.0
26641;DHT22;14269;47.358;0.724;2023-07-20T10:19:16;30.0;33.0
26641;DHT22;14269;47.358;0.724;2023-07-20T10:21:57;29.0;35.0
26641;DHT22;14269;47.358;0.724;2023-07-20T10:24:35;30.0;33.0
26641;DHT22;14269;47.358;0.724;2023-07-20T10:27:17;30.0;33.0
26641;DHT22;14269;47.358;0.724;2023-07-20T10:29:48;30.0;32.0
26641;DHT22;14269;47.358;0.724;2023-07-20T10:32:30;28.0;35.0
26641;DHT22;14269;47.358;0.724;2023-07-20T10:35:12;29.0;34.0
26641;DHT22;14269;47.358;0.724;2023-07-20T10:37:48;28.0;35.0
26641;DHT22;14269;47.358;0.724;2023-07-20T10:40:27;29.0;35.0
26641;DHT22;14269;47.358;0.724;2023-07-20T10:43:08;28.0;35.0
26641;DHT22;14269;47.358;0.724;2023-07-20T10:45:50;27.0;36.0
26641;DHT22;14269;47.358;0.724;2023-07-20T10:48:30;27.0;37.0
26641;DHT22;14269;47.358;0.724;2023-07-20T10:51:11;28.0;36.0
26641;DHT22;14269;47.358;0.724;2023-07-20T10:53:44;27.0;37.0
26641;DHT22;14269;47.358;0.724;2023-07-20T10:56:22;28.0;37.0
26641;DHT22;14269;47.358;0.724;2023-07-20T10:58:59;29.0;36.0
26641;DHT22;14269;47.358;0.724;2023-07-20T11:01:42;30.0;35.0
26641;DHT22;14269;47.358;0.724;2023-07-20T11:04:37;30.0;34.0
26641;DHT22;14269;47.358;0.724;2023-07-20T11:07:15;31.0;33.0
26641;DHT22;14269;47.358;0.724;2023-07-20T11:10:12;31.0;33.0
26641;DHT22;14269;47.358;0.724;2023-07-20T11:13:16;31.0;32.0
26641;DHT22;14269;47.358;0.724;2023-07-20T11:16:03;31.0;32.0
26641;DHT22;14269;47.358;0.724;2023-07-20T11:18:40;31.0;32.0
26641;DHT22;14269;47.358;0.724;2023-07-20T11:21:12;31.0;32.0
26641;DHT22;14269;47.358;0.724;2023-07-20T11:23:45;32.0;31.0
26641;DHT22;14269;47.358;0.724;2023-07-20T11:26:25;32.0;31.0
26641;DHT22;14269;47.358;0.724;2023-07-20T11:28:58;32.0;30.0
26641;DHT22;14269;47.358;0.724;2023-07-20T11:31:40;32.0;30.0
26641;DHT22;14269;47.358;0.724;2023-07-20T11:34:21;32.0;30.0
26641;DHT22;14269;47.358;0.724;2023-07-20T11:36:52;31.0;31.0
26641;DHT22;14269;47.358;0.724;2023-07-20T11:39:25;31.0;31.0
26641;DHT22;14269;47.358;0.724;2023-07-20T11:42:06;32.0;30.0
26641;DHT22;14269;47.358;0.724;2023-07-20T11:44:38;32.0;30.0
26641;DHT22;14269;47.358;0.724;2023-07-20T11:47:10;31.0;30.0
26641;DHT22;14269;47.358;0.724;2023-07-20T11:49:54;32.0;30.0
26641;DHT22;14269;47.358;0.724;2023-07-20T11:52:33;31.0;30.0
26641;DHT22;14269;47.358;0.724;2023-07-20T11:55:14;30.0;31.0
26641;DHT22;14269;47.358;0.724;2023-07-20T11:58:01;30.0;32.0
26641;DHT22;14269;47.358;0.724;2023-07-20T12:00:39;29.0;33.0
26641;DHT22;14269;47.358;0.724;2023-07-20T12:03:20;29.0;33.0
26641;DHT22;14269;47.358;0.724;2023-07-20T12:05:51;30.0;32.0
26641;DHT22;14269;47.358;0.724;2023-07-20T12:08:23;30.0;31.0
26641;DHT22;14269;47.358;0.724;2023-07-20T12:10:54;30.0;32.0
26641;DHT22;14269;47.358;0.724;2023-07-20T12:13:36;30.0;31.0
26641;DHT22;14269;47.358;0.724;2023-07-20T12:16:10;30.0;31.0
26641;DHT22;14269;47.358;0.724;2023-07-20T12:18:59;31.0;30.0
26641;DHT22;14269;47.358;0.724;2023-07-20T12:21:31;31.0;30.0
26641;DHT22;14269;47.358;0.724;2023-07-20T12:24:04;31.0;31.0
26641;DHT22;14269;47.358;0.724;2023-07-20T12:26:44;31.0;31.0
26641;DHT22;14269;47.358;0.724;2023-07-20T12:29:16;31.0;29.0
26641;DHT22;14269;47.358;0.724;2023-07-20T12:31:48;31.0;29.0
26641;DHT22;14269;47.358;0.724;2023-07-20T12:34:19;31.0;31.0
26641;DHT22;14269;47.358;0.724;2023-07-20T12:36:51;31.0;29.0
26641;DHT22;14269;47.358;0.724;2023-07-20T12:39:22;31.0;30.0
26641;DHT22;14269;47.358;0.724;2023-07-20T12:41:54;31.0;31.0
26641;DHT22;14269;47.358;0.724;2023-07-20T12:44:27;31.0;31.0
26641;DHT22;14269;47.358;0.724;2023-07-20T12:46:57;31.0;30.0
26641;DHT22;14269;47.358;0.724;2023-07-20T12:49:29;30.0;31.0
26641;DHT22;14269;47.358;0.724;2023-07-20T12:52:01;30.0;32.0
26641;DHT22;14269;47.358;0.724;2023-07-20T12:54:32;30.0;31.0
26641;DHT22;14269;47.358;0.724;2023-07-20T12:57:05;30.0;31.0
26641;DHT22;14269;47.358;0.724;2023-07-20T12:59:36;30.0;32.0
26641;DHT22;14269;47.358;0.724;2023-07-20T13:02:08;30.0;30.0
26641;DHT22;14269;47.358;0.724;2023-07-20T13:04:39;29.0;31.0
26641;DHT22;14269;47.358;0.724;2023-07-20T13:07:11;29.0;32.0
26641;DHT22;14269;47.358;0.724;2023-07-20T13:09:42;30.0;31.0
26641;DHT22;14269;47.358;0.724;2023-07-20T13:12:14;29.0;32.0
26641;DHT22;14269;47.358;0.724;2023-07-20T13:14:46;29.0;32.0
26641;DHT22;14269;47.358;0.724;2023-07-20T13:17:17;30.0;32.0
26641;DHT22;14269;47.358;0.724;2023-07-20T13:19:49;30.0;32.0
26641;DHT22;14269;47.358;0.724;2023-07-20T13:22:21;30.0;32.0
26641;DHT22;14269;47.358;0.724;2023-07-20T13:24:52;30.0;31.0
26641;DHT22;14269;47.358;0.724;2023-07-20T13:27:25;31.0;31.0
26641;DHT22;14269;47.358;0.724;2023-07-20T13:30:08;31.0;31.0
26641;DHT22;14269;47.358;0.724;2023-07-20T13:32:47;30.0;31.0
26641;DHT22;14269;47.358;0.724;2023-07-20T13:35:19;30.0;31.0
26641;DHT22;14269;47.358;0.724;2023-07-20T13:37:51;30.0;31.0
26641;DHT22;14269;47.358;0.724;2023-07-20T13:40:23;30.0;31.0
26641;DHT22;14269;47.358;0.724;2023-07-20T13:43:04;30.0;31.0
26641;DHT22;14269;47.358;0.724;2023-07-20T13:45:36;30.0;31.0
26641;DHT22;14269;47.358;0.724;2023-07-20T13:48:07;30.0;31.0
26641;DHT22;14269;47.358;0.724;2023-07-20T13:50:39;30.0;31.0
26641;DHT22;14269;47.358;0.724;2023-07-20T13:53:11;30.0;31.0
26641;DHT22;14269;47.358;0.724;2023-07-20T13:55:53;30.0;31.0
26641;DHT22;14269;47.358;0.724;2023-07-20T13:58:25;29.0;32.0
26641;DHT22;14269;47.358;0.724;2023-07-20T14:00:56;29.0;32.0
26641;DHT22;14269;47.358;0.724;2023-07-20T14:03:27;29.0;32.0
26641;DHT22;14269;47.358;0.724;2023-07-20T14:05:59;29.0;31.0
26641;DHT22;14269;47.358;0.724;2023-07-20T14:08:31;30.0;32.0
26641;DHT22;14269;47.358;0.724;2023-07-20T14:11:02;30.0;31.0
26641;DHT22;14269;47.358;0.724;2023-07-20T14:13:34;30.0;31.0
26641;DHT22;14269;47.358;0.724;2023-07-20T14:16:06;30.0;31.0
26641;DHT22;14269;47.358;0.724;2023-07-20T14:18:49;30.0;31.0
26641;DHT22;14269;47.358;0.724;2023-07-20T14:21:31;30.0;31.0
26641;DHT22;14269;47.358;0.724;2023-07-20T14:24:11;30.0;31.0
26641;DHT22;14269;47.358;0.724;2023-07-20T14:26:42;30.0;31.0
26641;DHT22;14269;47.358;0.724;2023-07-20T14:29:14;30.0;30.0
26641;DHT22;14269;47.358;0.724;2023-07-20T14:31:50;30.0;30.0
26641;DHT22;14269;47.358;0.724;2023-07-20T14:34:27;30.0;31.0
26641;DHT22;14269;47.358;0.724;2023-07-20T14:37:00;30.0;31.0
26641;DHT22;14269;47.358;0.724;2023-07-20T14:39:31;30.0;31.0
26641;DHT22;14269;47.358;0.724;2023-07-20T14:42:04;29.0;32.0
26641;DHT22;14269;47.358;0.724;2023-07-20T14:44:44;30.0;32.0
26641;DHT22;14269;47.358;0.724;2023-07-20T14:47:16;30.0;31.0
26641;DHT22;14269;47.358;0.724;2023-07-20T14:49:48;30.0;31.0
26641;DHT22;14269;47.358;0.724;2023-07-20T14:52:19;30.0;31.0
26641;DHT22;14269;47.358;0.724;2023-07-20T14:54:51;30.0;31.0
26641;DHT22;14269;47.358;0.724;2023-07-20T14:57:23;29.0;31.0
26641;DHT22;14269;47.358;0.724;2023-07-20T14:59:54;30.0;31.0
26641;DHT22;14269;47.358;0.724;2023-07-20T15:02:26;30.0;31.0
26641;DHT22;14269;47.358;0.724;2023-07-20T15:04:58;30.0;31.0
26641;DHT22;14269;47.358;0.724;2023-07-20T15:07:29;30.0;31.0
26641;DHT22;14269;47.358;0.724;2023-07-20T15:10:01;30.0;30.0
26641;DHT22;14269;47.358;0.724;2023-07-20T15:12:32;29.0;31.0
26641;DHT22;14269;47.358;0.724;2023-07-20T15:15:07;30.0;31.0
26641;DHT22;14269;47.358;0.724;2023-07-20T15:17:46;29.0;31.0
26641;DHT22;14269;47.358;0.724;2023-07-20T15:20:17;29.0;31.0
26641;DHT22;14269;47.358;0.724;2023-07-20T15:22:49;29.0;31.0
26641;DHT22;14269;47.358;0.724;2023-07-20T15:25:22;29.0;31.0
26641;DHT22;14269;47.358;0.724;2023-07-20T15:28:02;29.0;31.0
26641;DHT22;14269;47.358;0.724;2023-07-20T15:30:34;29.0;31.0
26641;DHT22;14269;47.358;0.724;2023-07-20T15:33:06;29.0;32.0
26641;DHT22;14269;47.358;0.724;2023-07-20T15:35:38;29.0;32.0
26641;DHT22;14269;47.358;0.724;2023-07-20T15:38:09;29.0;32.0
26641;DHT22;14269;47.358;0.724;2023-07-20T15:40:43;29.0;33.0
26641;DHT22;14269;47.358;0.724;2023-07-20T15:43:22;28.0;32.0
26641;DHT22;14269;47.358;0.724;2023-07-20T15:46:28;28.0;33.0
26641;DHT22;14269;47.358;0.724;2023-07-20T15:49:16;28.0;33.0
26641;DHT22;14269;47.358;0.724;2023-07-20T15:51:48;28.0;33.0
26641;DHT22;14269;47.358;0.724;2023-07-20T15:54:20;28.0;34.0
26641;DHT22;14269;47.358;0.724;2023-07-20T15:56:53;28.0;33.0
26641;DHT22;14269;47.358;0.724;2023-07-20T15:59:33;28.0;33.0
26641;DHT22;14269;47.358;0.724;2023-07-20T16:02:05;28.0;34.0
26641;DHT22;14269;47.358;0.724;2023-07-20T16:04:36;28.0;34.0
26641;DHT22;14269;47.358;0.724;2023-07-20T16:07:08;28.0;34.0
26641;DHT22;14269;47.358;0.724;2023-07-20T16:09:40;28.0;34.0
26641;DHT22;14269;47.358;0.724;2023-07-20T16:12:11;28.0;34.0
26641;DHT22;14269;47.358;0.724;2023-07-20T16:14:43;28.0;34.0
26641;DHT22;14269;47.358;0.724;2023-07-20T16:17:14;28.0;34.0
26641;DHT22;14269;47.358;0.724;2023-07-20T16:19:46;28.0;34.0
26641;DHT22;14269;47.358;0.724;2023-07-20T16:22:18;28.0;34.0
26641;DHT22;14269;47.358;0.724;2023-07-20T16:24:50;28.0;34.0
26641;DHT22;14269;47.358;0.724;2023-07-20T16:27:21;28.0;34.0
26641;DHT22;14269;47.358;0.724;2023-07-20T16:29:53;28.0;34.0
26641;DHT22;14269;47.358;0.724;2023-07-20T16:32:24;28.0;34.0
26641;DHT22;14269;47.358;0.724;2023-07-20T16:34:56;28.0;34.0
26641;DHT22;14269;47.358;0.724;2023-07-20T16:37:28;28.0;35.0
26641;DHT22;14269;47.358;0.724;2023-07-20T16:40:00;28.0;34.0
26641;DHT22;14269;47.358;0.724;2023-07-20T16:42:32;28.0;34.0
26641;DHT22;14269;47.358;0.724;2023-07-20T16:45:13;28.0;34.0
26641;DHT22;14269;47.358;0.724;2023-07-20T16:47:44;28.0;34.0